Time;durP1;ratioP1;P1;durP2;ratioP2;P2;SDS_P1;SDS_P2;PMS_P1;PMS_P2;Temp;Humidity;BMP_temperature;BMP_pressure;BME280_temperature;BME280_humidity;BME280_pressure;Samples;Min_cycle;Max_cycle;Signal;HPM_P1;HPM_P2
2022/12/31 00:02:30;;;;;;;3.03;1.30;;;13.50;99.90;;;;;;4956415;28;20528;-76
2022/12/31 00:05:16;;;;;;;1.80;0.90;;;13.50;99.90;;;;;;4961709;28;20803;-75
2022/12/31 00:08:02;;;;;;;1.67;0.93;;;13.50;99.90;;;;;;4951044;28;20940;-76
2022/12/31 00:10:48;;;;;;;1.93;1.23;;;13.60;99.90;;;;;;4963499;28;20479;-75
2022/12/31 00:13:33;;;;;;;1.70;1.17;;;13.60;99.90;;;;;;4963429;28;20938;-76
2022/12/31 00:16:21;;;;;;;2.43;1.10;;;13.60;99.90;;;;;;4960007;28;20511;-76
2022/12/31 00:19:10;;;;;;;1.80;0.97;;;13.70;99.90;;;;;;4959341;28;20435;-76
2022/12/31 00:21:56;;;;;;;1.73;0.80;;;13.70;99.90;;;;;;4959715;28;20557;-76
2022/12/31 00:24:41;;;;;;;1.93;1.07;;;13.70;99.90;;;;;;4960024;28;20406;-74
2022/12/31 00:27:30;;;;;;;1.93;1.00;;;13.60;99.90;;;;;;4961816;28;20571;-74
2022/12/31 00:30:16;;;;;;;4.10;1.20;;;13.60;99.90;;;;;;4957623;28;20541;-76
2022/12/31 00:33:01;;;;;;;1.80;0.90;;;13.60;99.90;;;;;;4955591;28;20407;-76
2022/12/31 00:35:48;;;;;;;1.77;1.00;;;13.60;99.90;;;;;;4959386;28;20485;-77
2022/12/31 00:38:34;;;;;;;1.80;1.30;;;13.50;99.90;;;;;;4960044;28;20426;-76
2022/12/31 00:41:21;;;;;;;1.50;1.10;;;13.50;99.90;;;;;;4961554;28;20474;-77
2022/12/31 00:44:07;;;;;;;2.43;1.37;;;13.50;99.90;;;;;;4956429;28;20453;-76
2022/12/31 00:46:52;;;;;;;3.80;1.30;;;13.40;99.90;;;;;;4958341;28;20442;-76
2022/12/31 00:49:38;;;;;;;4.30;1.30;;;13.40;99.90;;;;;;4963411;28;20636;-76
2022/12/31 00:52:25;;;;;;;2.70;1.20;;;13.40;99.90;;;;;;4955420;28;20406;-76
2022/12/31 00:55:10;;;;;;;1.97;1.40;;;13.40;99.90;;;;;;4956193;28;20452;-75
2022/12/31 00:57:56;;;;;;;2.90;1.37;;;13.50;99.90;;;;;;4963620;28;20426;-76
2022/12/31 01:00:42;;;;;;;2.33;1.27;;;13.40;99.90;;;;;;4962017;28;20466;-77
2022/12/31 01:03:27;;;;;;;5.13;0.90;;;13.40;99.90;;;;;;4960371;28;20475;-75
2022/12/31 01:06:13;;;;;;;2.27;1.53;;;13.40;99.90;;;;;;4960605;28;20439;-75
2022/12/31 01:09:00;;;;;;;2.07;1.20;;;13.50;99.90;;;;;;4957885;28;20521;-76
2022/12/31 01:11:46;;;;;;;2.43;1.13;;;13.40;99.90;;;;;;5068897;22;20460;-73
2022/12/31 01:14:32;;;;;;;2.03;1.40;;;13.50;99.90;;;;;;5077643;28;21095;-73
2022/12/31 01:17:18;;;;;;;3.53;1.73;;;13.50;99.90;;;;;;5065913;28;20511;-73
2022/12/31 01:20:04;;;;;;;2.13;1.27;;;13.50;99.90;;;;;;5061393;28;20915;-73
2022/12/31 01:22:50;;;;;;;1.97;1.23;;;13.40;99.90;;;;;;5069379;28;20459;-73
2022/12/31 01:25:38;;;;;;;1.80;1.30;;;13.50;99.90;;;;;;5075746;28;20930;-73
2022/12/31 01:28:24;;;;;;;1.50;0.90;;;13.50;99.90;;;;;;5061129;28;21050;-73
2022/12/31 01:31:13;;;;;;;2.60;1.50;;;13.60;99.90;;;;;;5072527;28;20933;-73
2022/12/31 01:33:59;;;;;;;2.00;1.43;;;13.60;99.90;;;;;;5065965;28;20813;-73
2022/12/31 01:36:44;;;;;;;3.90;1.50;;;13.60;99.90;;;;;;5069540;28;20786;-73
2022/12/31 01:39:30;;;;;;;1.90;1.20;;;13.50;99.90;;;;;;5064593;28;20574;-74
2022/12/31 01:42:17;;;;;;;1.77;1.10;;;13.60;99.90;;;;;;5066982;28;20784;-73
2022/12/31 01:45:03;;;;;;;3.00;1.40;;;13.60;99.90;;;;;;5069029;28;20597;-72
2022/12/31 01:47:52;;;;;;;2.40;1.40;;;13.70;99.90;;;;;;5063900;28;21224;-73
2022/12/31 01:50:39;;;;;;;1.77;1.13;;;13.70;99.90;;;;;;5070514;28;20441;-73
2022/12/31 01:53:25;;;;;;;2.60;1.17;;;13.70;99.90;;;;;;5071218;28;20664;-73
2022/12/31 01:56:11;;;;;;;3.23;1.10;;;13.70;99.90;;;;;;5078487;28;20427;-73
2022/12/31 01:58:59;;;;;;;3.00;1.13;;;13.70;99.90;;;;;;5072906;28;20465;-73
2022/12/31 02:01:46;;;;;;;1.67;0.83;;;13.70;99.90;;;;;;5068674;28;20512;-73
2022/12/31 02:04:32;;;;;;;2.43;1.30;;;13.70;99.90;;;;;;5076169;28;20518;-73
2022/12/31 02:07:18;;;;;;;3.60;1.20;;;13.70;99.90;;;;;;5070884;28;20469;-73
2022/12/31 02:10:04;;;;;;;2.33;1.20;;;13.70;99.90;;;;;;5077313;28;20464;-73
2022/12/31 02:12:50;;;;;;;1.73;1.03;;;13.80;99.90;;;;;;5071693;28;20520;-73
2022/12/31 02:15:48;;;;;;;3.80;1.17;;;13.80;99.90;;;;;;5070202;28;20604;-73
2022/12/31 02:18:39;;;;;;;3.00;1.57;;;13.80;99.90;;;;;;5068913;28;20955;-73
2022/12/31 02:21:56;;;;;;;3.13;1.30;;;13.80;99.90;;;;;;5068055;28;20466;-73
2022/12/31 02:25:16;;;;;;;2.30;1.10;;;13.90;99.90;;;;;;5072421;28;20983;-73
2022/12/31 02:28:14;;;;;;;5.83;1.33;;;13.80;99.90;;;;;;5060750;28;20422;-73
2022/12/31 02:31:06;;;;;;;1.53;1.13;;;13.90;99.90;;;;;;5072888;28;20536;-73
2022/12/31 02:33:54;;;;;;;2.00;1.17;;;13.90;99.90;;;;;;5069615;28;20417;-73
2022/12/31 02:36:45;;;;;;;2.63;1.20;;;13.90;99.90;;;;;;5070948;28;20421;-73
2022/12/31 02:39:32;;;;;;;2.13;1.13;;;13.90;99.90;;;;;;5076952;28;20421;-73
2022/12/31 02:42:17;;;;;;;2.17;1.20;;;13.90;99.90;;;;;;5067908;28;20463;-73
2022/12/31 02:45:03;;;;;;;3.13;0.93;;;14.00;99.90;;;;;;5067456;28;20408;-73
2022/12/31 02:48:15;;;;;;;2.27;1.20;;;14.00;99.90;;;;;;5064427;28;20443;-73
2022/12/31 02:51:16;;;;;;;2.53;1.50;;;14.00;99.90;;;;;;5071537;28;20557;-73
2022/12/31 02:54:28;;;;;;;1.70;1.00;;;14.10;99.90;;;;;;5068835;28;20470;-73
2022/12/31 02:57:20;;;;;;;3.57;1.30;;;14.20;99.90;;;;;;5065273;28;20898;-73
2022/12/31 03:03:12;;;;;;;2.70;1.60;;;14.20;99.90;;;;;;5067331;28;20444;-73
2022/12/31 03:06:00;;;;;;;1.70;1.20;;;14.30;99.90;;;;;;5066651;28;20539;-73
2022/12/31 03:14:49;;;;;;;1.63;0.93;;;14.30;99.90;;;;;;5070874;28;20913;-73
2022/12/31 03:17:35;;;;;;;5.87;1.00;;;14.30;99.90;;;;;;5058582;28;20907;-73
2022/12/31 03:23:30;;;;;;;2.47;1.00;;;14.40;99.90;;;;;;5071307;28;20440;-73
2022/12/31 03:26:15;;;;;;;1.80;1.10;;;14.40;99.90;;;;;;5058832;28;20960;-73
2022/12/31 03:29:00;;;;;;;3.00;1.13;;;14.40;99.90;;;;;;5068339;28;21005;-73
2022/12/31 03:31:46;;;;;;;1.80;1.10;;;14.40;99.90;;;;;;5066639;28;20825;-73
2022/12/31 03:34:31;;;;;;;3.07;1.33;;;14.50;99.90;;;;;;5071303;28;20584;-73
2022/12/31 03:37:18;;;;;;;2.30;1.10;;;14.50;99.90;;;;;;5069640;28;20416;-73
2022/12/31 03:40:06;;;;;;;2.60;1.50;;;14.50;99.90;;;;;;5067257;28;20990;-73
2022/12/31 03:42:52;;;;;;;3.47;1.33;;;14.50;99.90;;;;;;5074245;28;20430;-73
2022/12/31 03:45:38;;;;;;;3.73;1.27;;;14.50;99.90;;;;;;5070227;28;20500;-73
2022/12/31 03:48:24;;;;;;;9.60;1.47;;;14.50;99.90;;;;;;5072217;28;20417;-73
2022/12/31 03:51:09;;;;;;;3.80;1.30;;;14.50;99.90;;;;;;5070947;28;20912;-73
2022/12/31 03:53:56;;;;;;;1.80;1.07;;;14.40;99.90;;;;;;5069343;28;20962;-73
2022/12/31 03:56:42;;;;;;;2.33;1.10;;;14.50;99.90;;;;;;5062489;28;20429;-73
2022/12/31 03:59:28;;;;;;;2.30;0.90;;;14.60;99.90;;;;;;5071226;28;20416;-73
2022/12/31 04:02:13;;;;;;;5.67;1.20;;;14.60;99.90;;;;;;5063837;28;20461;-73
2022/12/31 04:04:59;;;;;;;3.50;1.20;;;14.70;99.90;;;;;;5070181;28;20486;-73
2022/12/31 04:07:45;;;;;;;2.13;1.27;;;14.70;99.90;;;;;;5062538;28;20439;-73
2022/12/31 04:10:32;;;;;;;2.90;1.27;;;14.70;99.90;;;;;;5069808;28;20584;-73
2022/12/31 04:13:17;;;;;;;1.47;0.70;;;14.70;99.90;;;;;;5068815;28;20434;-73
2022/12/31 04:16:03;;;;;;;1.90;1.00;;;14.80;99.90;;;;;;5064592;28;20989;-73
2022/12/31 04:18:49;;;;;;;3.90;1.50;;;14.80;99.90;;;;;;5070747;28;20442;-73
2022/12/31 04:21:35;;;;;;;2.10;1.10;;;14.90;99.90;;;;;;5065442;28;20458;-73
2022/12/31 04:24:21;;;;;;;6.93;1.37;;;15.00;99.90;;;;;;5069090;28;21121;-73
2022/12/31 04:27:07;;;;;;;2.00;1.07;;;15.00;99.90;;;;;;5063910;28;20523;-73
2022/12/31 04:29:53;;;;;;;1.60;0.90;;;15.00;99.90;;;;;;5064956;28;20483;-73
2022/12/31 04:32:39;;;;;;;5.97;1.33;;;15.10;99.90;;;;;;5076941;28;20400;-73
2022/12/31 04:35:25;;;;;;;2.87;1.30;;;15.00;99.90;;;;;;5066144;28;20902;-73
2022/12/31 04:38:11;;;;;;;2.53;1.00;;;15.00;99.90;;;;;;5065141;28;20532;-73
2022/12/31 04:44:01;;;;;;;4.73;1.10;;;15.00;99.90;;;;;;5075562;28;20483;-73
2022/12/31 04:46:47;;;;;;;2.97;1.27;;;15.00;99.90;;;;;;5066843;28;20453;-73
2022/12/31 04:49:33;;;;;;;2.23;0.90;;;15.00;99.90;;;;;;5069334;28;20454;-73
2022/12/31 04:52:18;;;;;;;1.60;1.00;;;15.00;99.90;;;;;;5076340;28;20519;-73
2022/12/31 04:55:05;;;;;;;2.00;1.10;;;15.00;99.90;;;;;;5062811;28;20413;-73
2022/12/31 04:57:50;;;;;;;6.80;1.00;;;15.00;99.90;;;;;;5072939;28;20417;-73
2022/12/31 05:00:37;;;;;;;1.50;0.93;;;15.10;99.90;;;;;;5070210;28;20440;-73
2022/12/31 05:03:25;;;;;;;2.03;0.87;;;15.00;99.90;;;;;;5073193;28;20491;-73
2022/12/31 05:06:13;;;;;;;1.90;0.93;;;15.00;99.90;;;;;;5063937;28;20774;-73
2022/12/31 05:08:59;;;;;;;4.07;1.03;;;15.10;99.90;;;;;;5065863;28;20531;-73
2022/12/31 05:11:45;;;;;;;1.97;0.83;;;15.10;99.90;;;;;;5070990;28;20813;-73
2022/12/31 05:14:30;;;;;;;1.70;1.03;;;15.10;99.90;;;;;;5064635;28;20586;-73
2022/12/31 05:17:19;;;;;;;1.93;1.00;;;15.10;99.90;;;;;;5063176;28;20409;-73
2022/12/31 05:20:05;;;;;;;2.63;1.07;;;15.20;99.90;;;;;;5068925;28;20553;-73
2022/12/31 05:22:51;;;;;;;2.90;1.00;;;15.10;99.90;;;;;;5069173;28;20452;-73
2022/12/31 05:25:37;;;;;;;2.60;1.20;;;15.10;99.90;;;;;;5060762;28;20498;-73
2022/12/31 05:28:22;;;;;;;3.00;1.20;;;15.10;99.90;;;;;;5074614;28;20752;-73
2022/12/31 05:31:08;;;;;;;1.93;1.00;;;15.10;99.90;;;;;;5070846;28;20470;-73
2022/12/31 05:33:55;;;;;;;3.80;1.30;;;15.10;99.90;;;;;;5064654;28;20446;-73
2022/12/31 05:36:40;;;;;;;1.67;0.83;;;15.10;99.90;;;;;;5072609;28;20439;-73
2022/12/31 05:39:26;;;;;;;4.50;1.50;;;15.10;99.90;;;;;;5076234;28;20507;-73
2022/12/31 05:42:12;;;;;;;4.90;1.23;;;15.10;99.90;;;;;;5068263;28;20988;-73
2022/12/31 05:44:57;;;;;;;2.03;1.00;;;15.20;99.90;;;;;;5070962;28;20570;-73
2022/12/31 05:47:43;;;;;;;2.10;0.90;;;15.20;99.90;;;;;;5077370;28;20434;-73
2022/12/31 05:50:30;;;;;;;3.40;1.13;;;15.30;99.90;;;;;;5070635;28;20539;-73
2022/12/31 05:53:16;;;;;;;4.10;1.13;;;15.20;99.90;;;;;;5068005;28;20430;-73
2022/12/31 05:56:02;;;;;;;1.87;0.80;;;15.30;99.90;;;;;;5075440;28;20436;-73
2022/12/31 05:58:47;;;;;;;2.50;1.00;;;15.30;99.90;;;;;;5074077;28;20420;-73
2022/12/31 06:01:33;;;;;;;2.57;1.10;;;15.30;99.90;;;;;;5068648;28;20458;-73
2022/12/31 06:04:19;;;;;;;1.40;0.70;;;15.30;99.90;;;;;;5067990;28;21010;-72
2022/12/31 06:07:05;;;;;;;1.97;1.03;;;15.30;99.90;;;;;;5074122;28;20797;-73
2022/12/31 06:09:51;;;;;;;2.10;0.90;;;15.40;99.90;;;;;;5073664;28;20938;-73
2022/12/31 06:12:37;;;;;;;3.03;0.83;;;15.30;99.90;;;;;;5069648;28;20421;-73
2022/12/31 06:15:23;;;;;;;5.30;1.00;;;15.30;99.90;;;;;;5070078;28;20991;-73
2022/12/31 06:18:08;;;;;;;1.53;0.90;;;15.30;99.90;;;;;;5072954;28;21086;-73
2022/12/31 06:20:54;;;;;;;4.20;1.03;;;15.40;99.90;;;;;;5066924;28;20452;-73
2022/12/31 06:23:42;;;;;;;2.50;1.00;;;15.40;99.90;;;;;;5071254;28;20420;-73
2022/12/31 06:26:28;;;;;;;3.80;1.00;;;15.30;99.90;;;;;;5074968;28;20405;-73
2022/12/31 06:29:13;;;;;;;1.90;0.83;;;15.30;99.90;;;;;;5071828;28;20479;-73
2022/12/31 06:31:59;;;;;;;2.00;0.80;;;15.30;99.90;;;;;;5066782;28;21000;-73
2022/12/31 06:34:45;;;;;;;2.13;1.37;;;15.30;99.90;;;;;;5066445;28;20950;-73
2022/12/31 06:37:31;;;;;;;4.00;0.93;;;15.30;99.90;;;;;;5072291;28;20749;-73
2022/12/31 06:40:18;;;;;;;2.50;1.17;;;15.40;99.90;;;;;;5072454;28;20518;-73
2022/12/31 06:43:04;;;;;;;1.77;0.97;;;15.40;99.90;;;;;;5066031;28;20544;-73
2022/12/31 06:45:50;;;;;;;1.20;0.70;;;15.40;99.90;;;;;;5073842;28;21019;-73
2022/12/31 06:48:36;;;;;;;1.40;0.70;;;15.50;99.90;;;;;;5062333;28;20568;-73
2022/12/31 06:51:22;;;;;;;1.83;0.90;;;15.50;99.90;;;;;;5075616;28;20440;-73
2022/12/31 06:54:07;;;;;;;4.10;0.90;;;15.50;99.90;;;;;;5065875;28;20417;-73
2022/12/31 06:56:55;;;;;;;1.63;0.90;;;15.50;99.90;;;;;;5066919;28;20734;-74
2022/12/31 06:59:42;;;;;;;1.70;0.87;;;15.50;99.90;;;;;;5069150;28;20429;-73
2022/12/31 07:02:53;;;;;;;4.20;1.27;;;15.60;99.90;;;;;;5070318;28;20413;-73
2022/12/31 07:05:46;;;;;;;1.87;0.90;;;15.50;99.90;;;;;;5073215;28;21171;-73
2022/12/31 07:08:40;;;;;;;3.00;0.97;;;15.50;99.90;;;;;;5073482;28;20493;-73
2022/12/31 07:11:32;;;;;;;1.97;1.00;;;15.50;99.90;;;;;;5087138;22;20825;-76
2022/12/31 07:14:26;;;;;;;1.73;0.80;;;15.50;99.90;;;;;;5067246;28;20514;-76
2022/12/31 07:17:24;;;;;;;1.50;0.70;;;15.60;99.90;;;;;;5067128;28;20436;-77
2022/12/31 07:20:13;;;;;;;2.63;0.80;;;15.60;99.90;;;;;;5068984;28;20475;-76
2022/12/31 07:22:59;;;;;;;2.80;1.20;;;15.60;99.90;;;;;;5057460;28;20537;-77
2022/12/31 07:25:53;;;;;;;3.60;0.90;;;15.60;99.90;;;;;;5063634;28;20515;-76
2022/12/31 07:28:50;;;;;;;3.00;1.20;;;15.60;99.90;;;;;;5068693;28;20858;-76
2022/12/31 07:31:55;;;;;;;4.90;1.10;;;15.50;99.90;;;;;;5064312;28;20470;-76
2022/12/31 07:34:50;;;;;;;1.57;0.93;;;15.50;99.90;;;;;;5060339;28;20961;-76
2022/12/31 07:37:42;;;;;;;1.70;1.00;;;15.50;99.90;;;;;;5058814;28;20434;-76
2022/12/31 07:40:34;;;;;;;2.20;1.23;;;15.50;99.90;;;;;;5063934;28;20967;-77
2022/12/31 07:43:30;;;;;;;2.20;1.33;;;15.40;99.90;;;;;;5056851;28;20809;-76
2022/12/31 07:46:24;;;;;;;1.97;0.97;;;15.40;99.90;;;;;;5057560;28;20841;-77
2022/12/31 07:49:13;;;;;;;1.77;0.90;;;15.40;99.90;;;;;;5059646;28;20575;-76
2022/12/31 07:51:59;;;;;;;5.43;1.00;;;15.40;99.90;;;;;;5065123;28;20547;-76
2022/12/31 07:54:45;;;;;;;1.50;0.80;;;15.40;99.90;;;;;;5059850;28;20433;-76
2022/12/31 07:57:36;;;;;;;5.13;1.00;;;15.50;99.90;;;;;;5059878;28;20442;-76
2022/12/31 08:00:23;;;;;;;1.93;1.10;;;15.40;99.90;;;;;;5062758;28;21054;-76
2022/12/31 08:03:17;;;;;;;1.60;0.80;;;15.50;99.90;;;;;;5057857;28;20955;-76
2022/12/31 08:06:11;;;;;;;1.50;0.83;;;15.40;99.90;;;;;;5057729;28;20585;-76
2022/12/31 08:09:05;;;;;;;2.90;0.87;;;15.40;99.90;;;;;;5061836;28;20452;-76
2022/12/31 08:11:56;;;;;;;3.20;1.10;;;15.50;99.90;;;;;;5064389;28;20523;-75
2022/12/31 08:14:45;;;;;;;1.80;1.10;;;15.50;99.90;;;;;;5052628;28;20450;-76
2022/12/31 08:17:31;;;;;;;2.57;1.10;;;15.50;99.90;;;;;;5061720;28;20417;-76
2022/12/31 08:20:18;;;;;;;2.77;1.13;;;15.50;99.90;;;;;;5065081;28;20969;-76
2022/12/31 08:23:19;;;;;;;2.37;1.10;;;15.50;99.90;;;;;;5060424;28;20446;-76
2022/12/31 08:26:20;;;;;;;1.93;0.97;;;15.50;99.90;;;;;;5058230;28;20493;-75
2022/12/31 08:29:17;;;;;;;2.27;1.33;;;15.50;99.90;;;;;;5059522;28;20451;-76
2022/12/31 08:32:12;;;;;;;2.00;0.90;;;15.50;99.90;;;;;;5060149;28;20848;-78
2022/12/31 08:35:03;;;;;;;3.53;0.83;;;15.60;99.90;;;;;;5058150;28;20414;-77
2022/12/31 08:37:54;;;;;;;1.93;1.00;;;15.60;99.90;;;;;;5058896;28;20689;-77
2022/12/31 08:40:49;;;;;;;7.00;1.27;;;15.60;99.90;;;;;;5058981;28;20471;-76
2022/12/31 08:43:46;;;;;;;1.80;0.93;;;15.60;99.90;;;;;;5061788;28;20797;-77
2022/12/31 08:46:43;;;;;;;2.00;1.07;;;15.60;99.90;;;;;;5056709;28;20540;-77
2022/12/31 08:49:31;;;;;;;2.10;0.93;;;15.60;99.90;;;;;;5055347;28;20430;-76
2022/12/31 08:52:21;;;;;;;3.30;1.50;;;15.60;99.90;;;;;;5057045;28;20449;-76
2022/12/31 08:55:12;;;;;;;2.77;1.03;;;15.60;99.90;;;;;;5059556;28;20499;-77
2022/12/31 08:58:11;;;;;;;3.37;1.00;;;15.70;99.90;;;;;;5050875;28;20492;-76
2022/12/31 09:00:58;;;;;;;2.10;1.23;;;15.70;99.90;;;;;;5051159;28;20820;-76
2022/12/31 09:04:09;;;;;;;3.40;1.30;;;15.80;99.90;;;;;;5061915;28;20523;-76
2022/12/31 09:06:59;;;;;;;3.30;1.03;;;15.70;99.90;;;;;;5066809;28;20424;-77
2022/12/31 09:09:59;;;;;;;3.70;1.40;;;15.70;99.90;;;;;;5057701;28;20446;-76
2022/12/31 09:12:55;;;;;;;3.47;1.60;;;15.70;99.90;;;;;;5055933;28;20528;-77
2022/12/31 09:15:48;;;;;;;2.57;1.50;;;15.80;99.90;;;;;;5058681;28;20419;-77
2022/12/31 09:18:38;;;;;;;2.17;1.30;;;15.70;99.90;;;;;;5050484;28;20424;-76
2022/12/31 09:21:24;;;;;;;2.83;1.20;;;15.70;99.90;;;;;;5051363;28;20452;-76
2022/12/31 09:24:12;;;;;;;2.80;1.30;;;15.80;99.90;;;;;;5054224;28;21279;-76
2022/12/31 09:27:04;;;;;;;4.23;1.13;;;15.80;99.90;;;;;;5053546;28;20420;-77
2022/12/31 09:29:59;;;;;;;2.80;1.40;;;15.80;99.90;;;;;;5056245;28;20459;-77
2022/12/31 09:32:56;;;;;;;5.20;1.30;;;15.80;99.90;;;;;;5060920;28;20514;-76
2022/12/31 09:35:49;;;;;;;2.00;1.10;;;15.70;99.90;;;;;;5058978;28;20781;-76
2022/12/31 09:38:41;;;;;;;3.23;1.50;;;15.80;99.90;;;;;;5055376;28;20534;-77
2022/12/31 09:41:54;;;;;;;1.93;1.00;;;15.80;99.90;;;;;;5055267;28;21335;-76
2022/12/31 09:45:05;;;;;;;3.10;1.30;;;15.80;99.90;;;;;;5057880;28;20461;-76
2022/12/31 09:48:39;;;;;;;2.17;1.10;;;15.90;99.90;;;;;;5050098;28;20432;-76
2022/12/31 09:51:29;;;;;;;3.70;1.53;;;15.80;99.90;;;;;;5056534;28;20426;-76
2022/12/31 09:54:26;;;;;;;2.23;1.23;;;15.80;99.90;;;;;;5055754;28;20578;-76
2022/12/31 09:57:30;;;;;;;2.53;1.17;;;15.90;99.90;;;;;;5060701;28;20463;-76
2022/12/31 10:00:22;;;;;;;2.67;1.50;;;15.90;99.90;;;;;;5054680;28;20451;-76
2022/12/31 10:03:26;;;;;;;3.70;1.00;;;16.00;99.90;;;;;;5059725;28;20438;-78
2022/12/31 10:06:22;;;;;;;2.37;1.57;;;16.00;99.90;;;;;;5059081;28;20608;-76
2022/12/31 10:09:31;;;;;;;3.20;1.27;;;16.00;99.90;;;;;;5058259;28;20575;-75
2022/12/31 10:12:38;;;;;;;3.37;0.97;;;16.00;99.90;;;;;;5062263;28;20485;-75
2022/12/31 10:15:49;;;;;;;2.07;1.27;;;16.00;99.90;;;;;;5057390;28;20450;-76
2022/12/31 10:19:13;;;;;;;1.83;1.33;;;16.10;99.90;;;;;;5052231;28;20430;-75
2022/12/31 10:22:11;;;;;;;2.80;1.27;;;16.10;99.90;;;;;;5064912;28;21003;-75
2022/12/31 10:25:19;;;;;;;2.20;1.20;;;16.20;99.90;;;;;;5060623;28;20596;-75
2022/12/31 10:28:14;;;;;;;3.10;1.20;;;16.30;99.90;;;;;;5058424;28;20482;-75
2022/12/31 10:31:13;;;;;;;3.20;1.13;;;16.30;99.90;;;;;;5060256;28;22813;-75
2022/12/31 10:34:12;;;;;;;3.10;1.37;;;16.40;99.90;;;;;;5060376;28;20972;-74
2022/12/31 10:37:06;;;;;;;3.27;1.10;;;16.70;99.90;;;;;;5054396;28;20466;-77
2022/12/31 10:40:12;;;;;;;5.40;1.30;;;16.90;99.90;;;;;;5055250;28;20436;-78
2022/12/31 10:43:43;;;;;;;2.03;1.10;;;17.20;99.90;;;;;;5061457;28;21092;-77
2022/12/31 10:46:55;;;;;;;3.00;1.00;;;17.50;99.90;;;;;;5015792;28;20698;-76
2022/12/31 10:50:19;;;;;;;2.03;1.10;;;17.90;99.90;;;;;;5059331;28;20606;-75
2022/12/31 10:53:55;;;;;;;2.10;1.20;;;18.20;99.90;;;;;;5024874;28;20421;-74
2022/12/31 10:57:06;;;;;;;3.10;1.13;;;18.30;99.90;;;;;;4973838;28;20433;-77
2022/12/31 11:00:11;;;;;;;3.07;1.33;;;18.20;99.90;;;;;;4984920;28;20421;-76
2022/12/31 11:03:36;;;;;;;1.80;1.20;;;18.00;99.90;;;;;;5054085;28;20417;-76
2022/12/31 11:07:05;;;;;;;3.70;1.43;;;18.00;99.90;;;;;;5060179;28;21011;-75
2022/12/31 11:10:33;;;;;;;2.10;1.20;;;18.00;99.90;;;;;;5055301;28;20437;-76
2022/12/31 11:13:57;;;;;;;3.77;1.27;;;18.00;99.90;;;;;;5059248;28;20468;-77
2022/12/31 11:17:07;;;;;;;4.90;1.70;;;18.00;99.90;;;;;;5047869;28;20462;-76
2022/12/31 11:20:06;;;;;;;3.10;1.20;;;17.90;99.90;;;;;;5047993;28;20422;-77
2022/12/31 11:23:08;;;;;;;3.57;1.30;;;17.90;99.90;;;;;;5055517;28;20422;-77
2022/12/31 11:26:05;;;;;;;2.57;1.30;;;17.80;99.90;;;;;;5051494;28;20449;-77
2022/12/31 11:29:03;;;;;;;2.13;1.17;;;17.80;99.90;;;;;;5052434;28;20462;-78
2022/12/31 11:32:06;;;;;;;3.10;2.10;;;17.70;99.90;;;;;;5048027;28;20467;-76
2022/12/31 11:35:18;;;;;;;3.40;1.43;;;17.70;99.90;;;;;;5056250;28;20836;-78
2022/12/31 11:38:16;;;;;;;6.07;1.27;;;17.70;99.90;;;;;;5052190;28;20425;-76
2022/12/31 11:41:07;;;;;;;3.60;1.50;;;17.70;99.90;;;;;;5057551;28;20476;-77
2022/12/31 11:44:01;;;;;;;3.07;1.30;;;17.70;99.90;;;;;;5055404;28;20976;-76
2022/12/31 11:47:03;;;;;;;2.60;1.37;;;17.70;99.90;;;;;;5053224;28;20520;-76
2022/12/31 11:50:10;;;;;;;2.70;0.97;;;17.70;99.90;;;;;;5047522;28;20441;-77
2022/12/31 11:53:09;;;;;;;3.20;1.50;;;17.70;99.90;;;;;;5052031;28;20439;-76
2022/12/31 11:56:07;;;;;;;2.00;1.20;;;17.70;99.90;;;;;;5056600;28;20993;-76
2022/12/31 11:58:55;;;;;;;4.20;1.10;;;17.70;99.90;;;;;;5054872;28;20459;-78
2022/12/31 12:01:51;;;;;;;2.83;1.10;;;17.70;99.90;;;;;;5053039;28;20472;-76
2022/12/31 12:04:37;;;;;;;2.00;0.93;;;17.70;99.90;;;;;;5053382;28;21285;-75
2022/12/31 12:07:24;;;;;;;6.07;1.57;;;17.70;99.90;;;;;;5050785;28;20559;-76
2022/12/31 12:10:21;;;;;;;2.13;1.03;;;17.70;99.90;;;;;;5051915;28;20447;-78
2022/12/31 12:13:19;;;;;;;3.50;1.07;;;17.70;99.90;;;;;;5054817;28;20442;-76
2022/12/31 12:16:08;;;;;;;2.50;1.20;;;17.60;99.90;;;;;;5052718;28;20451;-76
2022/12/31 12:19:04;;;;;;;2.17;1.20;;;17.60;99.90;;;;;;5047797;28;20521;-77
2022/12/31 12:21:50;;;;;;;3.50;1.40;;;17.60;99.90;;;;;;5051558;28;20621;-78
2022/12/31 12:24:36;;;;;;;2.37;1.20;;;17.60;99.90;;;;;;5049639;28;20904;-77
2022/12/31 12:27:26;;;;;;;4.03;1.50;;;17.70;99.90;;;;;;5056858;28;20441;-77
2022/12/31 12:30:19;;;;;;;5.53;1.23;;;17.70;99.90;;;;;;5052901;28;20451;-76
2022/12/31 12:33:05;;;;;;;5.47;1.47;;;17.80;99.90;;;;;;5052334;28;20840;-76
2022/12/31 12:35:51;;;;;;;2.60;1.10;;;17.90;99.90;;;;;;5057119;28;20489;-76
2022/12/31 12:38:36;;;;;;;4.87;1.60;;;18.00;99.90;;;;;;5052319;28;21212;-76
2022/12/31 12:41:25;;;;;;;3.40;1.07;;;18.30;99.90;;;;;;5052802;28;21281;-76
2022/12/31 12:44:15;;;;;;;2.40;1.10;;;18.50;99.90;;;;;;5055514;28;20438;-77
2022/12/31 12:47:05;;;;;;;3.50;0.90;;;18.80;99.90;;;;;;5055390;28;20454;-77
2022/12/31 12:49:54;;;;;;;1.93;1.20;;;19.00;99.90;;;;;;5061409;28;20820;-77
2022/12/31 12:53:12;;;;;;;2.13;1.00;;;19.40;99.40;;;;;;5054056;28;20527;-76
2022/12/31 12:56:06;;;;;;;4.43;1.00;;;20.00;94.40;;;;;;5029940;28;21008;-77
2022/12/31 12:59:18;;;;;;;3.00;1.00;;;20.00;90.50;;;;;;5055032;28;20432;-77
2022/12/31 13:02:29;;;;;;;2.60;1.20;;;20.30;87.10;;;;;;5053361;28;20474;-77
2022/12/31 13:05:25;;;;;;;5.20;1.90;;;20.80;84.50;;;;;;5046534;28;20410;-78
2022/12/31 13:08:25;;;;;;;2.63;1.07;;;21.40;70.80;;;;;;5056921;28;20446;-77
2022/12/31 13:11:25;;;;;;;3.43;1.30;;;21.70;66.80;;;;;;5076659;22;20482;-73
2022/12/31 13:14:21;;;;;;;5.43;1.10;;;20.90;67.70;;;;;;5089627;28;20445;-73
2022/12/31 13:17:27;;;;;;;2.63;1.17;;;20.50;72.20;;;;;;5088029;28;20458;-73
2022/12/31 13:20:21;;;;;;;16.70;2.00;;;20.10;73.80;;;;;;5082579;28;20466;-73
2022/12/31 13:23:18;;;;;;;3.63;1.10;;;19.60;78.40;;;;;;5057790;28;20424;-73
2022/12/31 13:26:08;;;;;;;3.20;1.13;;;19.30;79.00;;;;;;5068067;28;20437;-72
2022/12/31 13:28:54;;;;;;;1.70;0.90;;;19.00;81.00;;;;;;5063650;28;20433;-73
2022/12/31 13:31:42;;;;;;;3.47;1.40;;;18.80;86.00;;;;;;5062803;28;20501;-72
2022/12/31 13:34:33;;;;;;;2.87;1.00;;;18.60;86.60;;;;;;5066649;28;20459;-72
2022/12/31 13:37:27;;;;;;;2.10;1.10;;;18.50;88.20;;;;;;5066189;28;20607;-73
2022/12/31 13:40:23;;;;;;;4.50;1.53;;;18.40;89.50;;;;;;5065688;28;21013;-73
2022/12/31 13:43:16;;;;;;;6.10;2.57;;;18.40;90.70;;;;;;5067469;28;20425;-73
2022/12/31 13:46:10;;;;;;;1.87;0.90;;;18.30;90.20;;;;;;5061835;28;20529;-73
2022/12/31 13:48:59;;;;;;;6.90;1.40;;;18.20;90.60;;;;;;5069711;28;20895;-73
2022/12/31 13:51:49;;;;;;;2.40;1.00;;;18.10;91.10;;;;;;5065581;28;20482;-73
2022/12/31 13:54:43;;;;;;;2.70;1.50;;;18.10;90.20;;;;;;5065649;28;20450;-72
2022/12/31 13:57:40;;;;;;;1.80;1.00;;;18.00;90.50;;;;;;5068056;28;20492;-73
2022/12/31 14:00:31;;;;;;;2.50;0.93;;;17.90;90.80;;;;;;5067483;28;20847;-72
2022/12/31 14:03:22;;;;;;;1.70;1.00;;;17.90;90.10;;;;;;5071467;28;20949;-72
2022/12/31 14:06:17;;;;;;;1.90;0.90;;;18.00;90.50;;;;;;5063143;28;20441;-73
2022/12/31 14:09:06;;;;;;;2.03;0.77;;;17.90;90.80;;;;;;5058720;28;20422;-73
2022/12/31 14:12:08;;;;;;;2.10;1.00;;;17.80;90.40;;;;;;5067348;28;20749;-73
2022/12/31 14:15:02;;;;;;;4.43;1.30;;;17.80;91.20;;;;;;5069322;28;20421;-73
2022/12/31 14:17:55;;;;;;;1.83;1.00;;;17.80;90.40;;;;;;5071074;28;20451;-73
2022/12/31 14:20:46;;;;;;;4.43;2.43;;;17.80;90.40;;;;;;5066997;28;20540;-73
2022/12/31 14:23:41;;;;;;;1.80;0.90;;;17.80;91.00;;;;;;5071050;28;20465;-73
2022/12/31 14:26:33;;;;;;;1.97;1.00;;;17.70;91.40;;;;;;5068462;28;20617;-73
2022/12/31 14:29:32;;;;;;;2.40;0.97;;;17.70;90.60;;;;;;5068793;28;20421;-73
2022/12/31 14:32:42;;;;;;;1.53;0.70;;;17.60;91.30;;;;;;5075073;28;20444;-73
2022/12/31 14:35:43;;;;;;;6.90;1.10;;;17.70;91.20;;;;;;5073845;28;20531;-73
2022/12/31 14:38:43;;;;;;;2.50;1.07;;;17.70;90.90;;;;;;5076566;28;20773;-73
2022/12/31 14:41:45;;;;;;;2.23;1.17;;;17.70;91.10;;;;;;5064244;28;20486;-73
2022/12/31 14:44:42;;;;;;;3.43;0.97;;;17.60;91.80;;;;;;5065248;28;20790;-73
2022/12/31 14:47:38;;;;;;;3.87;1.20;;;17.50;91.80;;;;;;5076245;28;20433;-73
2022/12/31 14:50:26;;;;;;;1.70;0.90;;;17.50;91.70;;;;;;5059764;28;20468;-73
2022/12/31 14:53:21;;;;;;;1.97;0.87;;;17.50;92.30;;;;;;5069390;28;20601;-73
2022/12/31 14:56:26;;;;;;;2.43;1.00;;;17.40;91.60;;;;;;5068078;28;20816;-73
2022/12/31 14:59:26;;;;;;;3.77;2.00;;;17.50;91.40;;;;;;5060510;28;20570;-72
2022/12/31 15:02:26;;;;;;;3.03;1.63;;;17.40;92.30;;;;;;5067723;28;20498;-74
2022/12/31 15:05:16;;;;;;;3.00;1.60;;;17.30;92.30;;;;;;5066893;28;20917;-74
2022/12/31 15:08:26;;;;;;;3.00;1.00;;;17.30;92.40;;;;;;5058167;28;20599;-74
2022/12/31 15:11:31;;;;;;;3.20;0.93;;;17.30;92.10;;;;;;5070090;28;21006;-73
2022/12/31 15:14:48;;;;;;;1.73;1.10;;;17.40;91.60;;;;;;5060156;28;20421;-73
2022/12/31 15:17:42;;;;;;;1.77;0.80;;;17.30;91.90;;;;;;5040313;28;20451;-74